<?xml version="1.0" encoding="UTF-8" standalone="no" ?>
<gpx xmlns="http://www.topografix.com/GPX/1/1" xmlns:xsi="http://www.w3.org/2001/XMLSchema-instance" xsi:schemaLocation="http://www.topografix.com/GPX/1/1 http://www.topografix.com/GPX/1/1/gpx.xsd" version="1.1" creator="VisuGPX - https://www.visugpx.com">
  <metadata>
    <name>Vacances 2021</name>
  </metadata>
  <trk>
    <name><![CDATA[Journal actif: 2021-07-25 14:55]]></name>
    <trkseg>
      <trkpt lat="49.33669" lon="5.08347">
        <ele>203.94</ele>
        <time>2021-07-25T16:55:38Z</time>
      </trkpt>
      <trkpt lat="49.33669" lon="5.08347">
        <ele>203.94</ele>
        <time>2021-07-25T16:57:11Z</time>
      </trkpt>
      <trkpt lat="49.33669" lon="5.08347">
        <ele>203.94</ele>
        <time>2021-07-25T16:57:17Z</time>
      </trkpt>
      <trkpt lat="49.33672" lon="5.0835">
        <ele>203.94</ele>
        <time>2021-07-25T16:57:18Z</time>
      </trkpt>
      <trkpt lat="49.33672" lon="5.0835">
        <ele>203.94</ele>
        <time>2021-07-25T16:57:19Z</time>
      </trkpt>
      <trkpt lat="49.33674" lon="5.08352">
        <ele>204.42</ele>
        <time>2021-07-25T16:57:20Z</time>
      </trkpt>
      <trkpt lat="49.33677" lon="5.08354">
        <ele>204.42</ele>
        <time>2021-07-25T16:57:21Z</time>
      </trkpt>
      <trkpt lat="49.33681" lon="5.08357">
        <ele>204.42</ele>
        <time>2021-07-25T16:57:22Z</time>
      </trkpt>
      <trkpt lat="49.33686" lon="5.08361">
        <ele>204.42</ele>
        <time>2021-07-25T16:57:23Z</time>
      </trkpt>
      <trkpt lat="49.33751" lon="5.0841">
        <ele>205.86</ele>
        <time>2021-07-25T16:57:31Z</time>
      </trkpt>
      <trkpt lat="49.33863" lon="5.08458">
        <ele>204.42</ele>
        <time>2021-07-25T16:57:40Z</time>
      </trkpt>
      <trkpt lat="49.34134" lon="5.08539">
        <ele>201.05</ele>
        <time>2021-07-25T16:57:59Z</time>
      </trkpt>
      <trkpt lat="49.34363" lon="5.0859">
        <ele>203.46</ele>
        <time>2021-07-25T16:58:14Z</time>
      </trkpt>
      <trkpt lat="49.34645" lon="5.08584">
        <ele>199.13</ele>
        <time>2021-07-25T16:58:31Z</time>
      </trkpt>
      <trkpt lat="49.34872" lon="5.08582">
        <ele>201.53</ele>
        <time>2021-07-25T16:58:48Z</time>
      </trkpt>
      <trkpt lat="49.34971" lon="5.0862">
        <ele>203.46</ele>
        <time>2021-07-25T16:58:56Z</time>
      </trkpt>
      <trkpt lat="49.35121" lon="5.08766">
        <ele>204.42</ele>
        <time>2021-07-25T16:59:11Z</time>
      </trkpt>
      <trkpt lat="49.35286" lon="5.08932">
        <ele>203.46</ele>
        <time>2021-07-25T16:59:27Z</time>
      </trkpt>
      <trkpt lat="49.35511" lon="5.0916">
        <ele>204.42</ele>
        <time>2021-07-25T16:59:48Z</time>
      </trkpt>
      <trkpt lat="49.35542" lon="5.09191">
        <ele>203.94</ele>
        <time>2021-07-25T16:59:54Z</time>
      </trkpt>
      <trkpt lat="49.35546" lon="5.09195">
        <ele>204.42</ele>
        <time>2021-07-25T16:59:57Z</time>
      </trkpt>
      <trkpt lat="49.35547" lon="5.09196">
        <ele>204.42</ele>
        <time>2021-07-25T16:59:58Z</time>
      </trkpt>
      <trkpt lat="49.35548" lon="5.09197">
        <ele>204.42</ele>
        <time>2021-07-25T16:59:59Z</time>
      </trkpt>
      <trkpt lat="49.35549" lon="5.09198">
        <ele>204.42</ele>
        <time>2021-07-25T17:00:00Z</time>
      </trkpt>
      <trkpt lat="49.3555" lon="5.092">
        <ele>204.42</ele>
        <time>2021-07-25T17:00:01Z</time>
      </trkpt>
      <trkpt lat="49.3555" lon="5.092">
        <ele>204.42</ele>
        <time>2021-07-25T17:00:21Z</time>
      </trkpt>
      <trkpt lat="49.3555" lon="5.092">
        <ele>203.94</ele>
        <time>2021-07-25T17:01:29Z</time>
      </trkpt>
      <trkpt lat="49.35554" lon="5.09203">
        <ele>203.94</ele>
        <time>2021-07-25T17:01:30Z</time>
      </trkpt>
      <trkpt lat="49.35554" lon="5.09203">
        <ele>203.94</ele>
        <time>2021-07-25T17:01:31Z</time>
      </trkpt>
      <trkpt lat="49.35571" lon="5.09124">
        <ele>205.38</ele>
        <time>2021-07-25T17:01:42Z</time>
      </trkpt>
      <trkpt lat="49.35573" lon="5.09118">
        <ele>205.86</ele>
        <time>2021-07-25T17:01:43Z</time>
      </trkpt>
      <trkpt lat="49.35576" lon="5.09112">
        <ele>205.38</ele>
        <time>2021-07-25T17:01:44Z</time>
      </trkpt>
      <trkpt lat="49.35577" lon="5.09108">
        <ele>205.38</ele>
        <time>2021-07-25T17:01:45Z</time>
      </trkpt>
      <trkpt lat="49.35579" lon="5.09103">
        <ele>204.9</ele>
        <time>2021-07-25T17:01:46Z</time>
      </trkpt>
      <trkpt lat="49.3558" lon="5.091">
        <ele>204.9</ele>
        <time>2021-07-25T17:01:47Z</time>
      </trkpt>
      <trkpt lat="49.35585" lon="5.091">
        <ele>203.94</ele>
        <time>2021-07-25T17:01:48Z</time>
      </trkpt>
      <trkpt lat="49.35591" lon="5.091">
        <ele>203.94</ele>
        <time>2021-07-25T17:01:49Z</time>
      </trkpt>
      <trkpt lat="49.35597" lon="5.09099">
        <ele>203.46</ele>
        <time>2021-07-25T17:01:50Z</time>
      </trkpt>
      <trkpt lat="49.35697" lon="5.09091">
        <ele>203.94</ele>
        <time>2021-07-25T17:02:02Z</time>
      </trkpt>
      <trkpt lat="49.35705" lon="5.09091">
        <ele>203.94</ele>
        <time>2021-07-25T17:02:03Z</time>
      </trkpt>
      <trkpt lat="49.35713" lon="5.0909">
        <ele>204.42</ele>
        <time>2021-07-25T17:02:04Z</time>
      </trkpt>
      <trkpt lat="49.35721" lon="5.09088">
        <ele>204.42</ele>
        <time>2021-07-25T17:02:05Z</time>
      </trkpt>
      <trkpt lat="49.35726" lon="5.09081">
        <ele>204.42</ele>
        <time>2021-07-25T17:02:06Z</time>
      </trkpt>
      <trkpt lat="49.35731" lon="5.09073">
        <ele>204.9</ele>
        <time>2021-07-25T17:02:07Z</time>
      </trkpt>
      <trkpt lat="49.35737" lon="5.09064">
        <ele>205.38</ele>
        <time>2021-07-25T17:02:08Z</time>
      </trkpt>
      <trkpt lat="49.35761" lon="5.08996">
        <ele>210.67</ele>
        <time>2021-07-25T17:02:13Z</time>
      </trkpt>
      <trkpt lat="49.35762" lon="5.08982">
        <ele>212.11</ele>
        <time>2021-07-25T17:02:14Z</time>
      </trkpt>
      <trkpt lat="49.35764" lon="5.08968">
        <ele>213.07</ele>
        <time>2021-07-25T17:02:15Z</time>
      </trkpt>
      <trkpt lat="49.35791" lon="5.08747">
        <ele>218.36</ele>
        <time>2021-07-25T17:02:27Z</time>
      </trkpt>
      <trkpt lat="49.35828" lon="5.08405">
        <ele>226.05</ele>
        <time>2021-07-25T17:02:43Z</time>
      </trkpt>
      <trkpt lat="49.35883" lon="5.08063">
        <ele>237.58</ele>
        <time>2021-07-25T17:03:00Z</time>
      </trkpt>
      <trkpt lat="49.35972" lon="5.07853">
        <ele>242.87</ele>
        <time>2021-07-25T17:03:11Z</time>
      </trkpt>
      <trkpt lat="49.36096" lon="5.07703">
        <ele>245.27</ele>
        <time>2021-07-25T17:03:22Z</time>
      </trkpt>
      <trkpt lat="49.36237" lon="5.07577">
        <ele>251.04</ele>
        <time>2021-07-25T17:03:34Z</time>
      </trkpt>
      <trkpt lat="49.36248" lon="5.07563">
        <ele>252</ele>
        <time>2021-07-25T17:03:35Z</time>
      </trkpt>
      <trkpt lat="49.3631" lon="5.07406">
        <ele>256.81</ele>
        <time>2021-07-25T17:03:43Z</time>
      </trkpt>
      <trkpt lat="49.36369" lon="5.07193">
        <ele>263.06</ele>
        <time>2021-07-25T17:03:52Z</time>
      </trkpt>
      <trkpt lat="49.36375" lon="5.07178">
        <ele>263.54</ele>
        <time>2021-07-25T17:03:53Z</time>
      </trkpt>
      <trkpt lat="49.36383" lon="5.07164">
        <ele>264.5</ele>
        <time>2021-07-25T17:03:54Z</time>
      </trkpt>
      <trkpt lat="49.36392" lon="5.07155">
        <ele>264.5</ele>
        <time>2021-07-25T17:03:55Z</time>
      </trkpt>
      <trkpt lat="49.36392" lon="5.07155">
        <ele>264.98</ele>
        <time>2021-07-25T17:03:56Z</time>
      </trkpt>
      <trkpt lat="49.36402" lon="5.07146">
        <ele>264.5</ele>
        <time>2021-07-25T17:03:57Z</time>
      </trkpt>
      <trkpt lat="49.36412" lon="5.07137">
        <ele>264.98</ele>
        <time>2021-07-25T17:03:58Z</time>
      </trkpt>
      <trkpt lat="49.36423" lon="5.07127">
        <ele>265.46</ele>
        <time>2021-07-25T17:03:59Z</time>
      </trkpt>
      <trkpt lat="49.36436" lon="5.07121">
        <ele>265.46</ele>
        <time>2021-07-25T17:04:00Z</time>
      </trkpt>
      <trkpt lat="49.36557" lon="5.07051">
        <ele>268.35</ele>
        <time>2021-07-25T17:04:10Z</time>
      </trkpt>
      <trkpt lat="49.36725" lon="5.06839">
        <ele>261.14</ele>
        <time>2021-07-25T17:04:24Z</time>
      </trkpt>
      <trkpt lat="49.3679" lon="5.06686">
        <ele>255.37</ele>
        <time>2021-07-25T17:04:33Z</time>
      </trkpt>
      <trkpt lat="49.36832" lon="5.06569">
        <ele>247.68</ele>
        <time>2021-07-25T17:04:39Z</time>
      </trkpt>
      <trkpt lat="49.36835" lon="5.0655">
        <ele>246.72</ele>
        <time>2021-07-25T17:04:40Z</time>
      </trkpt>
      <trkpt lat="49.36838" lon="5.0653">
        <ele>245.75</ele>
        <time>2021-07-25T17:04:41Z</time>
      </trkpt>
      <trkpt lat="49.36836" lon="5.06511">
        <ele>244.79</ele>
        <time>2021-07-25T17:04:42Z</time>
      </trkpt>
      <trkpt lat="49.36835" lon="5.06491">
        <ele>243.83</ele>
        <time>2021-07-25T17:04:43Z</time>
      </trkpt>
      <trkpt lat="49.36833" lon="5.06451">
        <ele>243.35</ele>
        <time>2021-07-25T17:04:44Z</time>
      </trkpt>
      <trkpt lat="49.36814" lon="5.06218">
        <ele>234.7</ele>
        <time>2021-07-25T17:04:56Z</time>
      </trkpt>
      <trkpt lat="49.36812" lon="5.062">
        <ele>234.22</ele>
        <time>2021-07-25T17:04:57Z</time>
      </trkpt>
      <trkpt lat="49.36815" lon="5.06185">
        <ele>234.7</ele>
        <time>2021-07-25T17:04:58Z</time>
      </trkpt>
      <trkpt lat="49.36819" lon="5.06171">
        <ele>234.22</ele>
        <time>2021-07-25T17:04:59Z</time>
      </trkpt>
      <trkpt lat="49.36825" lon="5.06158">
        <ele>233.26</ele>
        <time>2021-07-25T17:05:00Z</time>
      </trkpt>
      <trkpt lat="49.36832" lon="5.06146">
        <ele>232.78</ele>
        <time>2021-07-25T17:05:01Z</time>
      </trkpt>
      <trkpt lat="49.36839" lon="5.06133">
        <ele>233.26</ele>
        <time>2021-07-25T17:05:02Z</time>
      </trkpt>
      <trkpt lat="49.36846" lon="5.06121">
        <ele>231.81</ele>
        <time>2021-07-25T17:05:03Z</time>
      </trkpt>
      <trkpt lat="49.36854" lon="5.06108">
        <ele>231.81</ele>
        <time>2021-07-25T17:05:04Z</time>
      </trkpt>
      <trkpt lat="49.36866" lon="5.06103">
        <ele>231.81</ele>
        <time>2021-07-25T17:05:05Z</time>
      </trkpt>
      <trkpt lat="49.36876" lon="5.06097">
        <ele>231.81</ele>
        <time>2021-07-25T17:05:06Z</time>
      </trkpt>
      <trkpt lat="49.36948" lon="5.06054">
        <ele>233.74</ele>
        <time>2021-07-25T17:05:12Z</time>
      </trkpt>
      <trkpt lat="49.36957" lon="5.06046">
        <ele>234.7</ele>
        <time>2021-07-25T17:05:13Z</time>
      </trkpt>
      <trkpt lat="49.36964" lon="5.06041">
        <ele>235.66</ele>
        <time>2021-07-25T17:05:14Z</time>
      </trkpt>
      <trkpt lat="49.3697" lon="5.06029">
        <ele>235.66</ele>
        <time>2021-07-25T17:05:15Z</time>
      </trkpt>
      <trkpt lat="49.36976" lon="5.06016">
        <ele>236.14</ele>
        <time>2021-07-25T17:05:16Z</time>
      </trkpt>
      <trkpt lat="49.36979" lon="5.05999">
        <ele>236.14</ele>
        <time>2021-07-25T17:05:17Z</time>
      </trkpt>
      <trkpt lat="49.36976" lon="5.05982">
        <ele>234.7</ele>
        <time>2021-07-25T17:05:18Z</time>
      </trkpt>
      <trkpt lat="49.36971" lon="5.05965">
        <ele>234.7</ele>
        <time>2021-07-25T17:05:19Z</time>
      </trkpt>
      <trkpt lat="49.36967" lon="5.0595">
        <ele>233.74</ele>
        <time>2021-07-25T17:05:20Z</time>
      </trkpt>
      <trkpt lat="49.36934" lon="5.05841">
        <ele>238.06</ele>
        <time>2021-07-25T17:05:26Z</time>
      </trkpt>
      <trkpt lat="49.36933" lon="5.05822">
        <ele>240.47</ele>
        <time>2021-07-25T17:05:27Z</time>
      </trkpt>
      <trkpt lat="49.36931" lon="5.05803">
        <ele>242.87</ele>
        <time>2021-07-25T17:05:28Z</time>
      </trkpt>
      <trkpt lat="49.3693" lon="5.05783">
        <ele>244.79</ele>
        <time>2021-07-25T17:05:29Z</time>
      </trkpt>
      <trkpt lat="49.36932" lon="5.05767">
        <ele>246.23</ele>
        <time>2021-07-25T17:05:30Z</time>
      </trkpt>
      <trkpt lat="49.36965" lon="5.05551">
        <ele>257.77</ele>
        <time>2021-07-25T17:05:41Z</time>
      </trkpt>
      <trkpt lat="49.37016" lon="5.05225">
        <ele>255.85</ele>
        <time>2021-07-25T17:05:54Z</time>
      </trkpt>
      <trkpt lat="49.37038" lon="5.0508">
        <ele>256.81</ele>
        <time>2021-07-25T17:06:02Z</time>
      </trkpt>
      <trkpt lat="49.37056" lon="5.04957">
        <ele>259.69</ele>
        <time>2021-07-25T17:06:11Z</time>
      </trkpt>
      <trkpt lat="49.3708" lon="5.04843">
        <ele>262.1</ele>
        <time>2021-07-25T17:06:17Z</time>
      </trkpt>
      <trkpt lat="49.37089" lon="5.04828">
        <ele>262.58</ele>
        <time>2021-07-25T17:06:18Z</time>
      </trkpt>
      <trkpt lat="49.37097" lon="5.04813">
        <ele>263.06</ele>
        <time>2021-07-25T17:06:19Z</time>
      </trkpt>
      <trkpt lat="49.37107" lon="5.04797">
        <ele>261.62</ele>
        <time>2021-07-25T17:06:20Z</time>
      </trkpt>
      <trkpt lat="49.37116" lon="5.04785">
        <ele>260.17</ele>
        <time>2021-07-25T17:06:21Z</time>
      </trkpt>
      <trkpt lat="49.37128" lon="5.04775">
        <ele>258.73</ele>
        <time>2021-07-25T17:06:22Z</time>
      </trkpt>
      <trkpt lat="49.37266" lon="5.04669">
        <ele>256.81</ele>
        <time>2021-07-25T17:06:32Z</time>
      </trkpt>
      <trkpt lat="49.37352" lon="5.04606">
        <ele>256.33</ele>
        <time>2021-07-25T17:06:39Z</time>
      </trkpt>
      <trkpt lat="49.37483" lon="5.04549">
        <ele>260.17</ele>
        <time>2021-07-25T17:06:49Z</time>
      </trkpt>
      <trkpt lat="49.37639" lon="5.04528">
        <ele>256.81</ele>
        <time>2021-07-25T17:06:59Z</time>
      </trkpt>
      <trkpt lat="49.37802" lon="5.04462">
        <ele>256.81</ele>
        <time>2021-07-25T17:07:09Z</time>
      </trkpt>
      <trkpt lat="49.37982" lon="5.04359">
        <ele>256.81</ele>
        <time>2021-07-25T17:07:20Z</time>
      </trkpt>
      <trkpt lat="49.3814" lon="5.0434">
        <ele>247.68</ele>
        <time>2021-07-25T17:07:28Z</time>
      </trkpt>
      <trkpt lat="49.3825" lon="5.04284">
        <ele>251.52</ele>
        <time>2021-07-25T17:07:35Z</time>
      </trkpt>
      <trkpt lat="49.38457" lon="5.04181">
        <ele>239.51</ele>
        <time>2021-07-25T17:07:49Z</time>
      </trkpt>
      <trkpt lat="49.38597" lon="5.04064">
        <ele>228.45</ele>
        <time>2021-07-25T17:07:57Z</time>
      </trkpt>
      <trkpt lat="49.38718" lon="5.03949">
        <ele>214.99</ele>
        <time>2021-07-25T17:08:06Z</time>
      </trkpt>
      <trkpt lat="49.38832" lon="5.03882">
        <ele>220.28</ele>
        <time>2021-07-25T17:08:14Z</time>
      </trkpt>
      <trkpt lat="49.38851" lon="5.0387">
        <ele>221.24</ele>
        <time>2021-07-25T17:08:16Z</time>
      </trkpt>
      <trkpt lat="49.38879" lon="5.03861">
        <ele>223.64</ele>
        <time>2021-07-25T17:08:19Z</time>
      </trkpt>
      <trkpt lat="49.38887" lon="5.03858">
        <ele>224.61</ele>
        <time>2021-07-25T17:08:20Z</time>
      </trkpt>
      <trkpt lat="49.38894" lon="5.03849">
        <ele>225.57</ele>
        <time>2021-07-25T17:08:21Z</time>
      </trkpt>
      <trkpt lat="49.389" lon="5.03839">
        <ele>226.53</ele>
        <time>2021-07-25T17:08:22Z</time>
      </trkpt>
      <trkpt lat="49.38906" lon="5.0383">
        <ele>227.49</ele>
        <time>2021-07-25T17:08:23Z</time>
      </trkpt>
      <trkpt lat="49.3891" lon="5.03817">
        <ele>227.97</ele>
        <time>2021-07-25T17:08:24Z</time>
      </trkpt>
      <trkpt lat="49.38914" lon="5.03803">
        <ele>229.41</ele>
        <time>2021-07-25T17:08:25Z</time>
      </trkpt>
      <trkpt lat="49.38919" lon="5.03794">
        <ele>230.37</ele>
        <time>2021-07-25T17:08:26Z</time>
      </trkpt>
      <trkpt lat="49.38925" lon="5.03785">
        <ele>230.85</ele>
        <time>2021-07-25T17:08:27Z</time>
      </trkpt>
      <trkpt lat="49.38934" lon="5.03771">
        <ele>230.85</ele>
        <time>2021-07-25T17:08:29Z</time>
      </trkpt>
      <trkpt lat="49.38937" lon="5.03766">
        <ele>231.33</ele>
        <time>2021-07-25T17:08:30Z</time>
      </trkpt>
      <trkpt lat="49.38938" lon="5.03764">
        <ele>231.81</ele>
        <time>2021-07-25T17:08:31Z</time>
      </trkpt>
      <trkpt lat="49.38937" lon="5.03756">
        <ele>231.33</ele>
        <time>2021-07-25T17:08:32Z</time>
      </trkpt>
      <trkpt lat="49.38935" lon="5.03749">
        <ele>231.33</ele>
        <time>2021-07-25T17:08:33Z</time>
      </trkpt>
      <trkpt lat="49.38933" lon="5.03741">
        <ele>231.33</ele>
        <time>2021-07-25T17:08:34Z</time>
      </trkpt>
      <trkpt lat="49.38909" lon="5.0364">
        <ele>229.89</ele>
        <time>2021-07-25T17:08:42Z</time>
      </trkpt>
      <trkpt lat="49.38895" lon="5.03574">
        <ele>231.33</ele>
        <time>2021-07-25T17:08:46Z</time>
      </trkpt>
      <trkpt lat="49.38894" lon="5.03558">
        <ele>231.81</ele>
        <time>2021-07-25T17:08:47Z</time>
      </trkpt>
      <trkpt lat="49.38893" lon="5.03545">
        <ele>232.3</ele>
        <time>2021-07-25T17:08:48Z</time>
      </trkpt>
      <trkpt lat="49.38898" lon="5.03533">
        <ele>232.3</ele>
        <time>2021-07-25T17:08:49Z</time>
      </trkpt>
      <trkpt lat="49.38902" lon="5.0352">
        <ele>235.18</ele>
        <time>2021-07-25T17:08:50Z</time>
      </trkpt>
      <trkpt lat="49.38907" lon="5.03507">
        <ele>238.06</ele>
        <time>2021-07-25T17:08:51Z</time>
      </trkpt>
      <trkpt lat="49.38986" lon="5.03348">
        <ele>246.72</ele>
        <time>2021-07-25T17:09:03Z</time>
      </trkpt>
      <trkpt lat="49.39015" lon="5.03306">
        <ele>245.75</ele>
        <time>2021-07-25T17:09:06Z</time>
      </trkpt>
      <trkpt lat="49.39022" lon="5.03289">
        <ele>245.75</ele>
        <time>2021-07-25T17:09:07Z</time>
      </trkpt>
      <trkpt lat="49.39106" lon="5.03124">
        <ele>258.73</ele>
        <time>2021-07-25T17:09:17Z</time>
      </trkpt>
      <trkpt lat="49.39197" lon="5.02994">
        <ele>252.48</ele>
        <time>2021-07-25T17:09:26Z</time>
      </trkpt>
      <trkpt lat="49.39207" lon="5.02977">
        <ele>252.96</ele>
        <time>2021-07-25T17:09:27Z</time>
      </trkpt>
      <trkpt lat="49.39215" lon="5.02957">
        <ele>252.96</ele>
        <time>2021-07-25T17:09:28Z</time>
      </trkpt>
      <trkpt lat="49.39221" lon="5.02934">
        <ele>254.41</ele>
        <time>2021-07-25T17:09:29Z</time>
      </trkpt>
      <trkpt lat="49.39229" lon="5.02886">
        <ele>254.41</ele>
        <time>2021-07-25T17:09:30Z</time>
      </trkpt>
      <trkpt lat="49.39263" lon="5.02632">
        <ele>255.85</ele>
        <time>2021-07-25T17:09:42Z</time>
      </trkpt>
      <trkpt lat="49.39334" lon="5.02463">
        <ele>259.21</ele>
        <time>2021-07-25T17:09:50Z</time>
      </trkpt>
      <trkpt lat="49.39445" lon="5.02202">
        <ele>253.93</ele>
        <time>2021-07-25T17:10:02Z</time>
      </trkpt>
      <trkpt lat="49.39538" lon="5.01904">
        <ele>247.68</ele>
        <time>2021-07-25T17:10:14Z</time>
      </trkpt>
      <trkpt lat="49.39574" lon="5.0176">
        <ele>237.58</ele>
        <time>2021-07-25T17:10:21Z</time>
      </trkpt>
      <trkpt lat="49.39578" lon="5.01737">
        <ele>237.1</ele>
        <time>2021-07-25T17:10:22Z</time>
      </trkpt>
      <trkpt lat="49.3958" lon="5.01715">
        <ele>236.62</ele>
        <time>2021-07-25T17:10:23Z</time>
      </trkpt>
      <trkpt lat="49.39579" lon="5.01691">
        <ele>236.14</ele>
        <time>2021-07-25T17:10:24Z</time>
      </trkpt>
      <trkpt lat="49.39575" lon="5.01667">
        <ele>236.62</ele>
        <time>2021-07-25T17:10:25Z</time>
      </trkpt>
      <trkpt lat="49.39571" lon="5.01643">
        <ele>237.1</ele>
        <time>2021-07-25T17:10:26Z</time>
      </trkpt>
      <trkpt lat="49.39543" lon="5.01426">
        <ele>244.79</ele>
        <time>2021-07-25T17:10:35Z</time>
      </trkpt>
      <trkpt lat="49.39547" lon="5.01405">
        <ele>246.23</ele>
        <time>2021-07-25T17:10:36Z</time>
      </trkpt>
      <trkpt lat="49.3955" lon="5.01385">
        <ele>248.16</ele>
        <time>2021-07-25T17:10:37Z</time>
      </trkpt>
      <trkpt lat="49.39571" lon="5.01208">
        <ele>246.23</ele>
        <time>2021-07-25T17:10:45Z</time>
      </trkpt>
      <trkpt lat="49.39558" lon="5.00903">
        <ele>239.02</ele>
        <time>2021-07-25T17:10:59Z</time>
      </trkpt>
      <trkpt lat="49.39556" lon="5.00819">
        <ele>236.14</ele>
        <time>2021-07-25T17:11:04Z</time>
      </trkpt>
      <trkpt lat="49.39558" lon="5.00808">
        <ele>235.66</ele>
        <time>2021-07-25T17:11:05Z</time>
      </trkpt>
      <trkpt lat="49.39561" lon="5.00795">
        <ele>234.7</ele>
        <time>2021-07-25T17:11:06Z</time>
      </trkpt>
      <trkpt lat="49.39564" lon="5.00785">
        <ele>234.22</ele>
        <time>2021-07-25T17:11:07Z</time>
      </trkpt>
      <trkpt lat="49.39574" lon="5.00763">
        <ele>234.22</ele>
        <time>2021-07-25T17:11:08Z</time>
      </trkpt>
      <trkpt lat="49.39574" lon="5.00763">
        <ele>233.26</ele>
        <time>2021-07-25T17:11:09Z</time>
      </trkpt>
      <trkpt lat="49.39643" lon="5.00666">
        <ele>223.64</ele>
        <time>2021-07-25T17:11:18Z</time>
      </trkpt>
      <trkpt lat="49.39648" lon="5.00659">
        <ele>223.16</ele>
        <time>2021-07-25T17:11:19Z</time>
      </trkpt>
      <trkpt lat="49.39653" lon="5.00652">
        <ele>222.68</ele>
        <time>2021-07-25T17:11:20Z</time>
      </trkpt>
      <trkpt lat="49.39658" lon="5.00646">
        <ele>221.72</ele>
        <time>2021-07-25T17:11:21Z</time>
      </trkpt>
      <trkpt lat="49.39662" lon="5.0064">
        <ele>221.24</ele>
        <time>2021-07-25T17:11:22Z</time>
      </trkpt>
      <trkpt lat="49.39651" lon="5.00613">
        <ele>220.28</ele>
        <time>2021-07-25T17:11:23Z</time>
      </trkpt>
      <trkpt lat="49.39655" lon="5.00605">
        <ele>219.32</ele>
        <time>2021-07-25T17:11:24Z</time>
      </trkpt>
      <trkpt lat="49.3966" lon="5.00596">
        <ele>218.84</ele>
        <time>2021-07-25T17:11:25Z</time>
      </trkpt>
      <trkpt lat="49.39666" lon="5.00586">
        <ele>218.84</ele>
        <time>2021-07-25T17:11:26Z</time>
      </trkpt>
      <trkpt lat="49.39672" lon="5.00575">
        <ele>218.84</ele>
        <time>2021-07-25T17:11:27Z</time>
      </trkpt>
      <trkpt lat="49.3975" lon="5.00446">
        <ele>210.19</ele>
        <time>2021-07-25T17:11:36Z</time>
      </trkpt>
      <trkpt lat="49.39907" lon="5.0025">
        <ele>219.32</ele>
        <time>2021-07-25T17:11:50Z</time>
      </trkpt>
      <trkpt lat="49.39941" lon="5.00191">
        <ele>223.16</ele>
        <time>2021-07-25T17:11:54Z</time>
      </trkpt>
      <trkpt lat="49.39949" lon="5.00174">
        <ele>224.12</ele>
        <time>2021-07-25T17:11:55Z</time>
      </trkpt>
      <trkpt lat="49.40013" lon="4.99983">
        <ele>234.7</ele>
        <time>2021-07-25T17:12:04Z</time>
      </trkpt>
      <trkpt lat="49.40059" lon="4.99884">
        <ele>240.95</ele>
        <time>2021-07-25T17:12:09Z</time>
      </trkpt>
      <trkpt lat="49.40069" lon="4.99868">
        <ele>242.39</ele>
        <time>2021-07-25T17:12:10Z</time>
      </trkpt>
      <trkpt lat="49.4008" lon="4.99853">
        <ele>243.35</ele>
        <time>2021-07-25T17:12:11Z</time>
      </trkpt>
      <trkpt lat="49.40091" lon="4.99839">
        <ele>243.83</ele>
        <time>2021-07-25T17:12:12Z</time>
      </trkpt>
      <trkpt lat="49.40104" lon="4.99826">
        <ele>243.83</ele>
        <time>2021-07-25T17:12:13Z</time>
      </trkpt>
      <trkpt lat="49.40225" lon="4.99693">
        <ele>246.23</ele>
        <time>2021-07-25T17:12:22Z</time>
      </trkpt>
      <trkpt lat="49.40354" lon="4.99461">
        <ele>252.48</ele>
        <time>2021-07-25T17:12:33Z</time>
      </trkpt>
      <trkpt lat="49.40499" lon="4.99169">
        <ele>272.19</ele>
        <time>2021-07-25T17:12:46Z</time>
      </trkpt>
      <trkpt lat="49.40659" lon="4.98894">
        <ele>273.15</ele>
        <time>2021-07-25T17:12:59Z</time>
      </trkpt>
      <trkpt lat="49.40784" lon="4.98746">
        <ele>255.37</ele>
        <time>2021-07-25T17:13:08Z</time>
      </trkpt>
      <trkpt lat="49.40949" lon="4.98574">
        <ele>245.75</ele>
        <time>2021-07-25T17:13:17Z</time>
      </trkpt>
      <trkpt lat="49.41143" lon="4.98324">
        <ele>249.6</ele>
        <time>2021-07-25T17:13:28Z</time>
      </trkpt>
      <trkpt lat="49.41297" lon="4.98106">
        <ele>244.79</ele>
        <time>2021-07-25T17:13:37Z</time>
      </trkpt>
      <trkpt lat="49.41434" lon="4.97915">
        <ele>246.23</ele>
        <time>2021-07-25T17:13:45Z</time>
      </trkpt>
      <trkpt lat="49.41615" lon="4.97667">
        <ele>242.87</ele>
        <time>2021-07-25T17:13:56Z</time>
      </trkpt>
      <trkpt lat="49.41761" lon="4.97402">
        <ele>230.37</ele>
        <time>2021-07-25T17:14:09Z</time>
      </trkpt>
      <trkpt lat="49.41799" lon="4.97233">
        <ele>219.8</ele>
        <time>2021-07-25T17:14:16Z</time>
      </trkpt>
      <trkpt lat="49.41819" lon="4.97071">
        <ele>213.07</ele>
        <time>2021-07-25T17:14:23Z</time>
      </trkpt>
      <trkpt lat="49.41874" lon="4.96913">
        <ele>209.22</ele>
        <time>2021-07-25T17:14:32Z</time>
      </trkpt>
      <trkpt lat="49.41884" lon="4.96895">
        <ele>207.78</ele>
        <time>2021-07-25T17:14:33Z</time>
      </trkpt>
      <trkpt lat="49.41893" lon="4.96878">
        <ele>206.82</ele>
        <time>2021-07-25T17:14:34Z</time>
      </trkpt>
      <trkpt lat="49.41906" lon="4.96865">
        <ele>205.86</ele>
        <time>2021-07-25T17:14:35Z</time>
      </trkpt>
      <trkpt lat="49.41918" lon="4.96853">
        <ele>204.9</ele>
        <time>2021-07-25T17:14:36Z</time>
      </trkpt>
      <trkpt lat="49.42046" lon="4.96739">
        <ele>195.77</ele>
        <time>2021-07-25T17:14:44Z</time>
      </trkpt>
      <trkpt lat="49.42046" lon="4.96739">
        <ele>195.28</ele>
        <time>2021-07-25T17:14:45Z</time>
      </trkpt>
      <trkpt lat="49.42057" lon="4.96719">
        <ele>194.32</ele>
        <time>2021-07-25T17:14:46Z</time>
      </trkpt>
      <trkpt lat="49.42133" lon="4.96534">
        <ele>185.19</ele>
        <time>2021-07-25T17:14:55Z</time>
      </trkpt>
      <trkpt lat="49.42244" lon="4.96299">
        <ele>180.38</ele>
        <time>2021-07-25T17:15:08Z</time>
      </trkpt>
      <trkpt lat="49.42359" lon="4.96076">
        <ele>178.94</ele>
        <time>2021-07-25T17:15:22Z</time>
      </trkpt>
      <trkpt lat="49.42384" lon="4.9603">
        <ele>177.98</ele>
        <time>2021-07-25T17:15:26Z</time>
      </trkpt>
      <trkpt lat="49.4239" lon="4.96019">
        <ele>178.46</ele>
        <time>2021-07-25T17:15:27Z</time>
      </trkpt>
      <trkpt lat="49.42391" lon="4.96016">
        <ele>178.46</ele>
        <time>2021-07-25T17:15:28Z</time>
      </trkpt>
      <trkpt lat="49.42391" lon="4.96016">
        <ele>178.46</ele>
        <time>2021-07-25T17:15:29Z</time>
      </trkpt>
      <trkpt lat="49.42395" lon="4.96008">
        <ele>179.42</ele>
        <time>2021-07-25T17:15:40Z</time>
      </trkpt>
      <trkpt lat="49.42398" lon="4.96003">
        <ele>178.94</ele>
        <time>2021-07-25T17:15:41Z</time>
      </trkpt>
      <trkpt lat="49.42435" lon="4.95929">
        <ele>179.9</ele>
        <time>2021-07-25T17:15:49Z</time>
      </trkpt>
      <trkpt lat="49.42532" lon="4.9574">
        <ele>180.38</ele>
        <time>2021-07-25T17:16:02Z</time>
      </trkpt>
      <trkpt lat="49.42628" lon="4.95552">
        <ele>178.46</ele>
        <time>2021-07-25T17:16:18Z</time>
      </trkpt>
      <trkpt lat="49.42635" lon="4.95541">
        <ele>177.98</ele>
        <time>2021-07-25T17:16:20Z</time>
      </trkpt>
      <trkpt lat="49.42638" lon="4.95538">
        <ele>177.5</ele>
        <time>2021-07-25T17:16:21Z</time>
      </trkpt>
      <trkpt lat="49.42649" lon="4.95535">
        <ele>177.5</ele>
        <time>2021-07-25T17:16:22Z</time>
      </trkpt>
      <trkpt lat="49.42649" lon="4.95535">
        <ele>177.02</ele>
        <time>2021-07-25T17:16:23Z</time>
      </trkpt>
      <trkpt lat="49.42654" lon="4.95533">
        <ele>176.54</ele>
        <time>2021-07-25T17:16:24Z</time>
      </trkpt>
      <trkpt lat="49.42658" lon="4.95533">
        <ele>176.06</ele>
        <time>2021-07-25T17:16:25Z</time>
      </trkpt>
      <trkpt lat="49.4271" lon="4.95543">
        <ele>177.5</ele>
        <time>2021-07-25T17:16:34Z</time>
      </trkpt>
      <trkpt lat="49.4275" lon="4.95552">
        <ele>179.42</ele>
        <time>2021-07-25T17:16:39Z</time>
      </trkpt>
      <trkpt lat="49.42757" lon="4.9555">
        <ele>179.42</ele>
        <time>2021-07-25T17:16:40Z</time>
      </trkpt>
      <trkpt lat="49.42764" lon="4.95547">
        <ele>178.46</ele>
        <time>2021-07-25T17:16:41Z</time>
      </trkpt>
      <trkpt lat="49.4277" lon="4.95545">
        <ele>177.98</ele>
        <time>2021-07-25T17:16:42Z</time>
      </trkpt>
      <trkpt lat="49.42775" lon="4.95542">
        <ele>177.5</ele>
        <time>2021-07-25T17:16:43Z</time>
      </trkpt>
      <trkpt lat="49.42779" lon="4.95533">
        <ele>177.5</ele>
        <time>2021-07-25T17:16:44Z</time>
      </trkpt>
      <trkpt lat="49.42783" lon="4.95524">
        <ele>177.5</ele>
        <time>2021-07-25T17:16:45Z</time>
      </trkpt>
      <trkpt lat="49.42787" lon="4.95514">
        <ele>177.02</ele>
        <time>2021-07-25T17:16:46Z</time>
      </trkpt>
      <trkpt lat="49.42828" lon="4.95378">
        <ele>175.58</ele>
        <time>2021-07-25T17:16:56Z</time>
      </trkpt>
      <trkpt lat="49.42906" lon="4.95179">
        <ele>178.46</ele>
        <time>2021-07-25T17:17:09Z</time>
      </trkpt>
      <trkpt lat="49.43043" lon="4.94898">
        <ele>189.04</ele>
        <time>2021-07-25T17:17:25Z</time>
      </trkpt>
      <trkpt lat="49.43181" lon="4.94615">
        <ele>194.32</ele>
        <time>2021-07-25T17:17:38Z</time>
      </trkpt>
      <trkpt lat="49.43303" lon="4.94366">
        <ele>194.32</ele>
        <time>2021-07-25T17:17:49Z</time>
      </trkpt>
      <trkpt lat="49.43404" lon="4.94158">
        <ele>190</ele>
        <time>2021-07-25T17:18:05Z</time>
      </trkpt>
      <trkpt lat="49.4344" lon="4.93997">
        <ele>177.98</ele>
        <time>2021-07-25T17:18:14Z</time>
      </trkpt>
      <trkpt lat="49.43489" lon="4.9369">
        <ele>182.31</ele>
        <time>2021-07-25T17:18:27Z</time>
      </trkpt>
      <trkpt lat="49.43558" lon="4.93231">
        <ele>190</ele>
        <time>2021-07-25T17:18:45Z</time>
      </trkpt>
      <trkpt lat="49.43624" lon="4.92801">
        <ele>185.67</ele>
        <time>2021-07-25T17:19:00Z</time>
      </trkpt>
      <trkpt lat="49.43707" lon="4.92259">
        <ele>184.71</ele>
        <time>2021-07-25T17:19:17Z</time>
      </trkpt>
      <trkpt lat="49.43836" lon="4.91419">
        <ele>184.71</ele>
        <time>2021-07-25T17:19:41Z</time>
      </trkpt>
      <trkpt lat="49.43931" lon="4.90804">
        <ele>181.35</ele>
        <time>2021-07-25T17:20:01Z</time>
      </trkpt>
      <trkpt lat="49.44005" lon="4.90325">
        <ele>177.98</ele>
        <time>2021-07-25T17:20:17Z</time>
      </trkpt>
      <trkpt lat="49.44072" lon="4.89889">
        <ele>171.25</ele>
        <time>2021-07-25T17:20:31Z</time>
      </trkpt>
      <trkpt lat="49.44175" lon="4.89206">
        <ele>169.81</ele>
        <time>2021-07-25T17:20:54Z</time>
      </trkpt>
      <trkpt lat="49.44181" lon="4.89057">
        <ele>169.81</ele>
        <time>2021-07-25T17:20:59Z</time>
      </trkpt>
      <trkpt lat="49.44179" lon="4.89027">
        <ele>169.33</ele>
        <time>2021-07-25T17:21:00Z</time>
      </trkpt>
      <trkpt lat="49.44176" lon="4.88998">
        <ele>169.81</ele>
        <time>2021-07-25T17:21:01Z</time>
      </trkpt>
      <trkpt lat="49.44164" lon="4.88942">
        <ele>170.77</ele>
        <time>2021-07-25T17:21:02Z</time>
      </trkpt>
      <trkpt lat="49.44164" lon="4.88942">
        <ele>170.77</ele>
        <time>2021-07-25T17:21:03Z</time>
      </trkpt>
      <trkpt lat="49.44157" lon="4.88913">
        <ele>170.77</ele>
        <time>2021-07-25T17:21:04Z</time>
      </trkpt>
      <trkpt lat="49.44147" lon="4.88889">
        <ele>170.77</ele>
        <time>2021-07-25T17:21:05Z</time>
      </trkpt>
      <trkpt lat="49.44137" lon="4.88864">
        <ele>171.25</ele>
        <time>2021-07-25T17:21:06Z</time>
      </trkpt>
      <trkpt lat="49.44124" lon="4.88841">
        <ele>171.73</ele>
        <time>2021-07-25T17:21:07Z</time>
      </trkpt>
      <trkpt lat="49.44111" lon="4.88821">
        <ele>171.73</ele>
        <time>2021-07-25T17:21:08Z</time>
      </trkpt>
      <trkpt lat="49.43925" lon="4.8856">
        <ele>168.37</ele>
        <time>2021-07-25T17:21:21Z</time>
      </trkpt>
      <trkpt lat="49.43702" lon="4.88247">
        <ele>171.73</ele>
        <time>2021-07-25T17:21:38Z</time>
      </trkpt>
      <trkpt lat="49.4369" lon="4.88227">
        <ele>172.69</ele>
        <time>2021-07-25T17:21:39Z</time>
      </trkpt>
      <trkpt lat="49.43683" lon="4.88202">
        <ele>173.17</ele>
        <time>2021-07-25T17:21:40Z</time>
      </trkpt>
      <trkpt lat="49.43676" lon="4.88177">
        <ele>174.14</ele>
        <time>2021-07-25T17:21:41Z</time>
      </trkpt>
      <trkpt lat="49.43672" lon="4.88153">
        <ele>176.06</ele>
        <time>2021-07-25T17:21:42Z</time>
      </trkpt>
      <trkpt lat="49.43669" lon="4.88128">
        <ele>176.54</ele>
        <time>2021-07-25T17:21:43Z</time>
      </trkpt>
      <trkpt lat="49.43669" lon="4.88103">
        <ele>177.02</ele>
        <time>2021-07-25T17:21:44Z</time>
      </trkpt>
      <trkpt lat="49.4367" lon="4.88079">
        <ele>177.98</ele>
        <time>2021-07-25T17:21:45Z</time>
      </trkpt>
      <trkpt lat="49.43673" lon="4.88056">
        <ele>178.46</ele>
        <time>2021-07-25T17:21:46Z</time>
      </trkpt>
      <trkpt lat="49.43677" lon="4.88034">
        <ele>178.94</ele>
        <time>2021-07-25T17:21:47Z</time>
      </trkpt>
      <trkpt lat="49.43701" lon="4.87894">
        <ele>177.98</ele>
        <time>2021-07-25T17:21:56Z</time>
      </trkpt>
      <trkpt lat="49.43706" lon="4.8778">
        <ele>177.98</ele>
        <time>2021-07-25T17:22:05Z</time>
      </trkpt>
      <trkpt lat="49.437" lon="4.8771">
        <ele>178.46</ele>
        <time>2021-07-25T17:22:14Z</time>
      </trkpt>
      <trkpt lat="49.43667" lon="4.87584">
        <ele>181.83</ele>
        <time>2021-07-25T17:22:23Z</time>
      </trkpt>
      <trkpt lat="49.43568" lon="4.87286">
        <ele>177.5</ele>
        <time>2021-07-25T17:22:41Z</time>
      </trkpt>
      <trkpt lat="49.43466" lon="4.86983">
        <ele>177.5</ele>
        <time>2021-07-25T17:22:56Z</time>
      </trkpt>
      <trkpt lat="49.43351" lon="4.86639">
        <ele>172.69</ele>
        <time>2021-07-25T17:23:10Z</time>
      </trkpt>
      <trkpt lat="49.43256" lon="4.86298">
        <ele>177.02</ele>
        <time>2021-07-25T17:23:22Z</time>
      </trkpt>
      <trkpt lat="49.4319" lon="4.85863">
        <ele>188.08</ele>
        <time>2021-07-25T17:23:37Z</time>
      </trkpt>
      <trkpt lat="49.43119" lon="4.85396">
        <ele>190.48</ele>
        <time>2021-07-25T17:23:53Z</time>
      </trkpt>
      <trkpt lat="49.43036" lon="4.84844">
        <ele>183.27</ele>
        <time>2021-07-25T17:24:12Z</time>
      </trkpt>
      <trkpt lat="49.43032" lon="4.84794">
        <ele>182.31</ele>
        <time>2021-07-25T17:24:14Z</time>
      </trkpt>
      <trkpt lat="49.43031" lon="4.84771">
        <ele>182.31</ele>
        <time>2021-07-25T17:24:15Z</time>
      </trkpt>
      <trkpt lat="49.43034" lon="4.84748">
        <ele>181.83</ele>
        <time>2021-07-25T17:24:16Z</time>
      </trkpt>
      <trkpt lat="49.43062" lon="4.84544">
        <ele>177.5</ele>
        <time>2021-07-25T17:24:26Z</time>
      </trkpt>
      <trkpt lat="49.4307" lon="4.84495">
        <ele>176.54</ele>
        <time>2021-07-25T17:24:32Z</time>
      </trkpt>
      <trkpt lat="49.43082" lon="4.84406">
        <ele>174.62</ele>
        <time>2021-07-25T17:24:41Z</time>
      </trkpt>
      <trkpt lat="49.43115" lon="4.84184">
        <ele>170.29</ele>
        <time>2021-07-25T17:24:56Z</time>
      </trkpt>
      <trkpt lat="49.4313" lon="4.84079">
        <ele>170.29</ele>
        <time>2021-07-25T17:25:04Z</time>
      </trkpt>
      <trkpt lat="49.43145" lon="4.83975">
        <ele>173.66</ele>
        <time>2021-07-25T17:25:12Z</time>
      </trkpt>
      <trkpt lat="49.43191" lon="4.8365">
        <ele>182.79</ele>
        <time>2021-07-25T17:25:30Z</time>
      </trkpt>
      <trkpt lat="49.43189" lon="4.83635">
        <ele>184.23</ele>
        <time>2021-07-25T17:25:31Z</time>
      </trkpt>
      <trkpt lat="49.43188" lon="4.8362">
        <ele>185.67</ele>
        <time>2021-07-25T17:25:32Z</time>
      </trkpt>
      <trkpt lat="49.43183" lon="4.8361">
        <ele>185.19</ele>
        <time>2021-07-25T17:25:33Z</time>
      </trkpt>
      <trkpt lat="49.43175" lon="4.83598">
        <ele>182.79</ele>
        <time>2021-07-25T17:25:34Z</time>
      </trkpt>
      <trkpt lat="49.43167" lon="4.83587">
        <ele>181.83</ele>
        <time>2021-07-25T17:25:35Z</time>
      </trkpt>
      <trkpt lat="49.43156" lon="4.83575">
        <ele>181.83</ele>
        <time>2021-07-25T17:25:36Z</time>
      </trkpt>
      <trkpt lat="49.43034" lon="4.83448">
        <ele>181.35</ele>
        <time>2021-07-25T17:25:46Z</time>
      </trkpt>
      <trkpt lat="49.42794" lon="4.83203">
        <ele>174.14</ele>
        <time>2021-07-25T17:26:02Z</time>
      </trkpt>
      <trkpt lat="49.42611" lon="4.83013">
        <ele>171.25</ele>
        <time>2021-07-25T17:26:13Z</time>
      </trkpt>
      <trkpt lat="49.42309" lon="4.82701">
        <ele>168.85</ele>
        <time>2021-07-25T17:26:31Z</time>
      </trkpt>
      <trkpt lat="49.42018" lon="4.824">
        <ele>179.9</ele>
        <time>2021-07-25T17:26:49Z</time>
      </trkpt>
      <trkpt lat="49.41702" lon="4.82071">
        <ele>183.27</ele>
        <time>2021-07-25T17:27:08Z</time>
      </trkpt>
      <trkpt lat="49.41476" lon="4.8184">
        <ele>188.56</ele>
        <time>2021-07-25T17:27:23Z</time>
      </trkpt>
      <trkpt lat="49.41416" lon="4.81791">
        <ele>192.4</ele>
        <time>2021-07-25T17:27:27Z</time>
      </trkpt>
      <trkpt lat="49.41401" lon="4.81783">
        <ele>193.36</ele>
        <time>2021-07-25T17:27:28Z</time>
      </trkpt>
      <trkpt lat="49.41386" lon="4.81778">
        <ele>194.32</ele>
        <time>2021-07-25T17:27:29Z</time>
      </trkpt>
      <trkpt lat="49.41229" lon="4.81719">
        <ele>212.11</ele>
        <time>2021-07-25T17:27:39Z</time>
      </trkpt>
      <trkpt lat="49.41159" lon="4.81623">
        <ele>220.76</ele>
        <time>2021-07-25T17:27:45Z</time>
      </trkpt>
      <trkpt lat="49.41058" lon="4.81374">
        <ele>221.72</ele>
        <time>2021-07-25T17:27:55Z</time>
      </trkpt>
      <trkpt lat="49.40944" lon="4.811">
        <ele>214.51</ele>
        <time>2021-07-25T17:28:06Z</time>
      </trkpt>
      <trkpt lat="49.40792" lon="4.80723">
        <ele>224.12</ele>
        <time>2021-07-25T17:28:20Z</time>
      </trkpt>
      <trkpt lat="49.40551" lon="4.80129">
        <ele>212.11</ele>
        <time>2021-07-25T17:28:41Z</time>
      </trkpt>
      <trkpt lat="49.40373" lon="4.79689">
        <ele>212.11</ele>
        <time>2021-07-25T17:28:56Z</time>
      </trkpt>
      <trkpt lat="49.40312" lon="4.79543">
        <ele>211.63</ele>
        <time>2021-07-25T17:29:04Z</time>
      </trkpt>
      <trkpt lat="49.40222" lon="4.79317">
        <ele>209.7</ele>
        <time>2021-07-25T17:29:18Z</time>
      </trkpt>
      <trkpt lat="49.40119" lon="4.79062">
        <ele>211.15</ele>
        <time>2021-07-25T17:29:34Z</time>
      </trkpt>
      <trkpt lat="49.40012" lon="4.78797">
        <ele>207.3</ele>
        <time>2021-07-25T17:29:50Z</time>
      </trkpt>
      <trkpt lat="49.39913" lon="4.78557">
        <ele>205.86</ele>
        <time>2021-07-25T17:30:01Z</time>
      </trkpt>
      <trkpt lat="49.39726" lon="4.78099">
        <ele>201.53</ele>
        <time>2021-07-25T17:30:20Z</time>
      </trkpt>
      <trkpt lat="49.39609" lon="4.77876">
        <ele>199.61</ele>
        <time>2021-07-25T17:30:30Z</time>
      </trkpt>
      <trkpt lat="49.39334" lon="4.77494">
        <ele>193.84</ele>
        <time>2021-07-25T17:30:49Z</time>
      </trkpt>
      <trkpt lat="49.39116" lon="4.77158">
        <ele>190.96</ele>
        <time>2021-07-25T17:31:06Z</time>
      </trkpt>
      <trkpt lat="49.39109" lon="4.77134">
        <ele>191.44</ele>
        <time>2021-07-25T17:31:07Z</time>
      </trkpt>
      <trkpt lat="49.39103" lon="4.77106">
        <ele>190.48</ele>
        <time>2021-07-25T17:31:08Z</time>
      </trkpt>
      <trkpt lat="49.39096" lon="4.77078">
        <ele>188.56</ele>
        <time>2021-07-25T17:31:09Z</time>
      </trkpt>
      <trkpt lat="49.39089" lon="4.77048">
        <ele>187.11</ele>
        <time>2021-07-25T17:31:10Z</time>
      </trkpt>
      <trkpt lat="49.39087" lon="4.77017">
        <ele>185.19</ele>
        <time>2021-07-25T17:31:11Z</time>
      </trkpt>
      <trkpt lat="49.39087" lon="4.76987">
        <ele>184.23</ele>
        <time>2021-07-25T17:31:12Z</time>
      </trkpt>
      <trkpt lat="49.3909" lon="4.76957">
        <ele>183.75</ele>
        <time>2021-07-25T17:31:13Z</time>
      </trkpt>
      <trkpt lat="49.39093" lon="4.76926">
        <ele>183.75</ele>
        <time>2021-07-25T17:31:14Z</time>
      </trkpt>
      <trkpt lat="49.39096" lon="4.76895">
        <ele>182.31</ele>
        <time>2021-07-25T17:31:15Z</time>
      </trkpt>
      <trkpt lat="49.39104" lon="4.76866">
        <ele>180.87</ele>
        <time>2021-07-25T17:31:16Z</time>
      </trkpt>
      <trkpt lat="49.39123" lon="4.76811">
        <ele>180.87</ele>
        <time>2021-07-25T17:31:17Z</time>
      </trkpt>
      <trkpt lat="49.39136" lon="4.76785">
        <ele>179.9</ele>
        <time>2021-07-25T17:31:18Z</time>
      </trkpt>
      <trkpt lat="49.39136" lon="4.76785">
        <ele>179.42</ele>
        <time>2021-07-25T17:31:19Z</time>
      </trkpt>
      <trkpt lat="49.39149" lon="4.76758">
        <ele>178.94</ele>
        <time>2021-07-25T17:31:20Z</time>
      </trkpt>
      <trkpt lat="49.39321" lon="4.76412">
        <ele>179.42</ele>
        <time>2021-07-25T17:31:34Z</time>
      </trkpt>
      <trkpt lat="49.39388" lon="4.76139">
        <ele>168.85</ele>
        <time>2021-07-25T17:31:43Z</time>
      </trkpt>
      <trkpt lat="49.39485" lon="4.75732">
        <ele>160.2</ele>
        <time>2021-07-25T17:31:55Z</time>
      </trkpt>
      <trkpt lat="49.39573" lon="4.75368">
        <ele>145.78</ele>
        <time>2021-07-25T17:32:10Z</time>
      </trkpt>
      <trkpt lat="49.39631" lon="4.75085">
        <ele>139.53</ele>
        <time>2021-07-25T17:32:23Z</time>
      </trkpt>
      <trkpt lat="49.39631" lon="4.75085">
        <ele>140.01</ele>
        <time>2021-07-25T17:32:24Z</time>
      </trkpt>
      <trkpt lat="49.39631" lon="4.75066">
        <ele>141.45</ele>
        <time>2021-07-25T17:32:25Z</time>
      </trkpt>
      <trkpt lat="49.3963" lon="4.75046">
        <ele>143.37</ele>
        <time>2021-07-25T17:32:26Z</time>
      </trkpt>
      <trkpt lat="49.39627" lon="4.75026">
        <ele>144.34</ele>
        <time>2021-07-25T17:32:27Z</time>
      </trkpt>
      <trkpt lat="49.39621" lon="4.75008">
        <ele>144.34</ele>
        <time>2021-07-25T17:32:28Z</time>
      </trkpt>
      <trkpt lat="49.39615" lon="4.7499">
        <ele>144.82</ele>
        <time>2021-07-25T17:32:29Z</time>
      </trkpt>
      <trkpt lat="49.39525" lon="4.74721">
        <ele>156.83</ele>
        <time>2021-07-25T17:32:42Z</time>
      </trkpt>
      <trkpt lat="49.39503" lon="4.74543">
        <ele>154.91</ele>
        <time>2021-07-25T17:32:49Z</time>
      </trkpt>
      <trkpt lat="49.39512" lon="4.74119">
        <ele>153.95</ele>
        <time>2021-07-25T17:33:03Z</time>
      </trkpt>
      <trkpt lat="49.39525" lon="4.73558">
        <ele>140.49</ele>
        <time>2021-07-25T17:33:20Z</time>
      </trkpt>
      <trkpt lat="49.39537" lon="4.7324">
        <ele>132.32</ele>
        <time>2021-07-25T17:33:31Z</time>
      </trkpt>
      <trkpt lat="49.39609" lon="4.72889">
        <ele>119.34</ele>
        <time>2021-07-25T17:33:43Z</time>
      </trkpt>
      <trkpt lat="49.39747" lon="4.72235">
        <ele>101.08</ele>
        <time>2021-07-25T17:34:04Z</time>
      </trkpt>
      <trkpt lat="49.39824" lon="4.71868">
        <ele>97.71</ele>
        <time>2021-07-25T17:34:17Z</time>
      </trkpt>
      <trkpt lat="49.39888" lon="4.71567">
        <ele>97.71</ele>
        <time>2021-07-25T17:34:30Z</time>
      </trkpt>
      <trkpt lat="49.39962" lon="4.7121">
        <ele>101.08</ele>
        <time>2021-07-25T17:34:48Z</time>
      </trkpt>
      <trkpt lat="49.4002" lon="4.70921">
        <ele>99.63</ele>
        <time>2021-07-25T17:35:04Z</time>
      </trkpt>
      <trkpt lat="49.40023" lon="4.70901">
        <ele>99.63</ele>
        <time>2021-07-25T17:35:05Z</time>
      </trkpt>
      <trkpt lat="49.40023" lon="4.70883">
        <ele>99.15</ele>
        <time>2021-07-25T17:35:06Z</time>
      </trkpt>
      <trkpt lat="49.40021" lon="4.70865">
        <ele>99.63</ele>
        <time>2021-07-25T17:35:07Z</time>
      </trkpt>
      <trkpt lat="49.40019" lon="4.70846">
        <ele>100.6</ele>
        <time>2021-07-25T17:35:08Z</time>
      </trkpt>
      <trkpt lat="49.40015" lon="4.70827">
        <ele>101.56</ele>
        <time>2021-07-25T17:35:09Z</time>
      </trkpt>
      <trkpt lat="49.40011" lon="4.70808">
        <ele>103.48</ele>
        <time>2021-07-25T17:35:10Z</time>
      </trkpt>
      <trkpt lat="49.39981" lon="4.70689">
        <ele>103</ele>
        <time>2021-07-25T17:35:16Z</time>
      </trkpt>
      <trkpt lat="49.39974" lon="4.70672">
        <ele>104.44</ele>
        <time>2021-07-25T17:35:17Z</time>
      </trkpt>
      <trkpt lat="49.39887" lon="4.70492">
        <ele>106.36</ele>
        <time>2021-07-25T17:35:30Z</time>
      </trkpt>
      <trkpt lat="49.39864" lon="4.70452">
        <ele>108.77</ele>
        <time>2021-07-25T17:35:32Z</time>
      </trkpt>
      <trkpt lat="49.39864" lon="4.70452">
        <ele>108.77</ele>
        <time>2021-07-25T17:35:33Z</time>
      </trkpt>
      <trkpt lat="49.39854" lon="4.70443">
        <ele>109.25</ele>
        <time>2021-07-25T17:35:34Z</time>
      </trkpt>
      <trkpt lat="49.39755" lon="4.70374">
        <ele>114.05</ele>
        <time>2021-07-25T17:35:44Z</time>
      </trkpt>
      <trkpt lat="49.39745" lon="4.70358">
        <ele>115.98</ele>
        <time>2021-07-25T17:35:45Z</time>
      </trkpt>
      <trkpt lat="49.39745" lon="4.70358">
        <ele>116.46</ele>
        <time>2021-07-25T17:35:46Z</time>
      </trkpt>
      <trkpt lat="49.3974" lon="4.70336">
        <ele>116.94</ele>
        <time>2021-07-25T17:35:47Z</time>
      </trkpt>
      <trkpt lat="49.3974" lon="4.70336">
        <ele>116.94</ele>
        <time>2021-07-25T17:35:48Z</time>
      </trkpt>
      <trkpt lat="49.39739" lon="4.70307">
        <ele>116.94</ele>
        <time>2021-07-25T17:35:49Z</time>
      </trkpt>
      <trkpt lat="49.39746" lon="4.70175">
        <ele>117.42</ele>
        <time>2021-07-25T17:36:00Z</time>
      </trkpt>
      <trkpt lat="49.39764" lon="4.70018">
        <ele>116.46</ele>
        <time>2021-07-25T17:36:15Z</time>
      </trkpt>
      <trkpt lat="49.39764" lon="4.69986">
        <ele>115.98</ele>
        <time>2021-07-25T17:36:23Z</time>
      </trkpt>
      <trkpt lat="49.39763" lon="4.6995">
        <ele>115.5</ele>
        <time>2021-07-25T17:36:35Z</time>
      </trkpt>
      <trkpt lat="49.39756" lon="4.69818">
        <ele>115.5</ele>
        <time>2021-07-25T17:36:46Z</time>
      </trkpt>
      <trkpt lat="49.39731" lon="4.69624">
        <ele>110.69</ele>
        <time>2021-07-25T17:36:58Z</time>
      </trkpt>
      <trkpt lat="49.397" lon="4.69388">
        <ele>114.53</ele>
        <time>2021-07-25T17:37:11Z</time>
      </trkpt>
      <trkpt lat="49.39665" lon="4.6909">
        <ele>119.82</ele>
        <time>2021-07-25T17:37:27Z</time>
      </trkpt>
      <trkpt lat="49.3963" lon="4.6881">
        <ele>122.71</ele>
        <time>2021-07-25T17:37:42Z</time>
      </trkpt>
      <trkpt lat="49.39587" lon="4.68447">
        <ele>116.46</ele>
        <time>2021-07-25T17:38:02Z</time>
      </trkpt>
      <trkpt lat="49.39555" lon="4.68217">
        <ele>113.57</ele>
        <time>2021-07-25T17:38:16Z</time>
      </trkpt>
      <trkpt lat="49.39554" lon="4.68209">
        <ele>113.57</ele>
        <time>2021-07-25T17:38:17Z</time>
      </trkpt>
      <trkpt lat="49.39552" lon="4.68201">
        <ele>113.09</ele>
        <time>2021-07-25T17:38:18Z</time>
      </trkpt>
      <trkpt lat="49.39566" lon="4.68177">
        <ele>112.61</ele>
        <time>2021-07-25T17:38:20Z</time>
      </trkpt>
      <trkpt lat="49.39564" lon="4.6817">
        <ele>112.13</ele>
        <time>2021-07-25T17:38:21Z</time>
      </trkpt>
      <trkpt lat="49.39561" lon="4.68159">
        <ele>112.13</ele>
        <time>2021-07-25T17:38:22Z</time>
      </trkpt>
      <trkpt lat="49.39561" lon="4.68159">
        <ele>111.65</ele>
        <time>2021-07-25T17:38:23Z</time>
      </trkpt>
      <trkpt lat="49.39548" lon="4.68146">
        <ele>111.65</ele>
        <time>2021-07-25T17:38:24Z</time>
      </trkpt>
      <trkpt lat="49.39545" lon="4.68123">
        <ele>111.17</ele>
        <time>2021-07-25T17:38:25Z</time>
      </trkpt>
      <trkpt lat="49.39545" lon="4.68123">
        <ele>110.69</ele>
        <time>2021-07-25T17:38:26Z</time>
      </trkpt>
      <trkpt lat="49.39544" lon="4.6811">
        <ele>110.69</ele>
        <time>2021-07-25T17:38:27Z</time>
      </trkpt>
      <trkpt lat="49.3952" lon="4.67918">
        <ele>109.73</ele>
        <time>2021-07-25T17:38:38Z</time>
      </trkpt>
      <trkpt lat="49.39483" lon="4.67619">
        <ele>113.09</ele>
        <time>2021-07-25T17:38:51Z</time>
      </trkpt>
      <trkpt lat="49.39452" lon="4.67359">
        <ele>113.57</ele>
        <time>2021-07-25T17:39:02Z</time>
      </trkpt>
      <trkpt lat="49.39403" lon="4.66956">
        <ele>116.46</ele>
        <time>2021-07-25T17:39:17Z</time>
      </trkpt>
      <trkpt lat="49.39345" lon="4.66486">
        <ele>112.61</ele>
        <time>2021-07-25T17:39:31Z</time>
      </trkpt>
      <trkpt lat="49.39273" lon="4.659">
        <ele>112.61</ele>
        <time>2021-07-25T17:39:50Z</time>
      </trkpt>
      <trkpt lat="49.39217" lon="4.65446">
        <ele>117.42</ele>
        <time>2021-07-25T17:40:06Z</time>
      </trkpt>
      <trkpt lat="49.39164" lon="4.65199">
        <ele>114.53</ele>
        <time>2021-07-25T17:40:15Z</time>
      </trkpt>
      <trkpt lat="49.38992" lon="4.64586">
        <ele>117.9</ele>
        <time>2021-07-25T17:40:36Z</time>
      </trkpt>
      <trkpt lat="49.38817" lon="4.63955">
        <ele>124.63</ele>
        <time>2021-07-25T17:40:57Z</time>
      </trkpt>
      <trkpt lat="49.38702" lon="4.63526">
        <ele>140.97</ele>
        <time>2021-07-25T17:41:12Z</time>
      </trkpt>
      <trkpt lat="49.38602" lon="4.63177">
        <ele>145.78</ele>
        <time>2021-07-25T17:41:26Z</time>
      </trkpt>
      <trkpt lat="49.38537" lon="4.62942">
        <ele>147.22</ele>
        <time>2021-07-25T17:41:37Z</time>
      </trkpt>
      <trkpt lat="49.38493" lon="4.627">
        <ele>146.26</ele>
        <time>2021-07-25T17:41:47Z</time>
      </trkpt>
      <trkpt lat="49.38514" lon="4.62346">
        <ele>156.35</ele>
        <time>2021-07-25T17:42:00Z</time>
      </trkpt>
      <trkpt lat="49.38543" lon="4.61871">
        <ele>172.21</ele>
        <time>2021-07-25T17:42:17Z</time>
      </trkpt>
      <trkpt lat="49.38576" lon="4.61662">
        <ele>175.58</ele>
        <time>2021-07-25T17:42:26Z</time>
      </trkpt>
      <trkpt lat="49.3865" lon="4.61286">
        <ele>177.02</ele>
        <time>2021-07-25T17:42:40Z</time>
      </trkpt>
      <trkpt lat="49.38673" lon="4.61172">
        <ele>178.46</ele>
        <time>2021-07-25T17:42:46Z</time>
      </trkpt>
      <trkpt lat="49.38677" lon="4.61149">
        <ele>178.94</ele>
        <time>2021-07-25T17:42:52Z</time>
      </trkpt>
      <trkpt lat="49.38677" lon="4.61149">
        <ele>179.9</ele>
        <time>2021-07-25T17:50:40Z</time>
      </trkpt>
      <trkpt lat="49.38677" lon="4.61149">
        <ele>180.38</ele>
        <time>2021-07-25T17:54:39Z</time>
      </trkpt>
      <trkpt lat="49.38677" lon="4.61149">
        <ele>180.38</ele>
        <time>2021-07-25T17:57:44Z</time>
      </trkpt>
    </trkseg>
  </trk>
</gpx>